sensor_id;sensor_type;location;lat;lon;timestamp;P1;durP1;ratioP1;P2;durP2;ratioP2
12768;SDS011;6448;48.916;8.990;2024-02-28T00:00:34;7.43;;;6.82;;
12768;SDS011;6448;48.916;8.990;2024-02-28T00:01:35;8.00;;;7.40;;
12768;SDS011;6448;48.916;8.990;2024-02-28T00:02:37;8.10;;;7.50;;
12768;SDS011;6448;48.916;8.990;2024-02-28T00:03:37;7.75;;;7.15;;
12768;SDS011;6448;48.916;8.990;2024-02-28T00:04:39;7.55;;;6.95;;
12768;SDS011;6448;48.916;8.990;2024-02-28T00:05:40;7.57;;;6.97;;
12768;SDS011;6448;48.916;8.990;2024-02-28T00:06:42;7.22;;;6.63;;
12768;SDS011;6448;48.916;8.990;2024-02-28T00:07:43;7.53;;;6.93;;
12768;SDS011;6448;48.916;8.990;2024-02-28T00:08:45;7.70;;;7.10;;
12768;SDS011;6448;48.916;8.990;2024-02-28T00:09:47;7.20;;;6.60;;
12768;SDS011;6448;48.916;8.990;2024-02-28T00:10:48;6.75;;;6.25;;
12768;SDS011;6448;48.916;8.990;2024-02-28T00:11:49;6.90;;;6.40;;
12768;SDS011;6448;48.916;8.990;2024-02-28T00:12:50;6.63;;;6.13;;
12768;SDS011;6448;48.916;8.990;2024-02-28T00:13:53;6.95;;;6.45;;
12768;SDS011;6448;48.916;8.990;2024-02-28T00:14:54;7.00;;;6.50;;
12768;SDS011;6448;48.916;8.990;2024-02-28T00:15:56;7.05;;;6.45;;
12768;SDS011;6448;48.916;8.990;2024-02-28T00:16:56;7.20;;;6.68;;
12768;SDS011;6448;48.916;8.990;2024-02-28T00:17:58;7.45;;;6.88;;
12768;SDS011;6448;48.916;8.990;2024-02-28T00:18:59;8.15;;;7.45;;
12768;SDS011;6448;48.916;8.990;2024-02-28T00:20:00;7.38;;;6.78;;
12768;SDS011;6448;48.916;8.990;2024-02-28T00:21:01;8.05;;;7.35;;
12768;SDS011;6448;48.916;8.990;2024-02-28T00:22:03;7.50;;;6.93;;
12768;SDS011;6448;48.916;8.990;2024-02-28T00:23:04;7.68;;;7.07;;
12768;SDS011;6448;48.916;8.990;2024-02-28T00:24:05;7.93;;;7.30;;
12768;SDS011;6448;48.916;8.990;2024-02-28T00:25:07;7.60;;;7.00;;
12768;SDS011;6448;48.916;8.990;2024-02-28T00:26:11;7.75;;;7.15;;
12768;SDS011;6448;48.916;8.990;2024-02-28T00:27:13;7.93;;;7.32;;
12768;SDS011;6448;48.916;8.990;2024-02-28T00:28:14;7.03;;;6.53;;
12768;SDS011;6448;48.916;8.990;2024-02-28T00:29:17;7.60;;;7.00;;
12768;SDS011;6448;48.916;8.990;2024-02-28T00:30:17;8.30;;;7.60;;
12768;SDS011;6448;48.916;8.990;2024-02-28T00:31:19;7.63;;;7.03;;
12768;SDS011;6448;48.916;8.990;2024-02-28T00:32:21;8.03;;;7.37;;
12768;SDS011;6448;48.916;8.990;2024-02-28T00:33:23;7.70;;;7.10;;
12768;SDS011;6448;48.916;8.990;2024-02-28T00:34:23;7.87;;;7.27;;
12768;SDS011;6448;48.916;8.990;2024-02-28T00:35:26;7.72;;;7.05;;
12768;SDS011;6448;48.916;8.990;2024-02-28T00:36:26;7.93;;;7.33;;
12768;SDS011;6448;48.916;8.990;2024-02-28T00:37:28;7.85;;;7.25;;
12768;SDS011;6448;48.916;8.990;2024-02-28T00:38:29;7.57;;;6.97;;
12768;SDS011;6448;48.916;8.990;2024-02-28T00:39:29;8.65;;;7.95;;
12768;SDS011;6448;48.916;8.990;2024-02-28T00:40:31;8.40;;;7.70;;
12768;SDS011;6448;48.916;8.990;2024-02-28T00:41:32;8.45;;;7.75;;
12768;SDS011;6448;48.916;8.990;2024-02-28T00:42:33;8.02;;;7.40;;
12768;SDS011;6448;48.916;8.990;2024-02-28T00:43:34;8.57;;;7.95;;
12768;SDS011;6448;48.916;8.990;2024-02-28T00:44:37;8.50;;;7.85;;
12768;SDS011;6448;48.916;8.990;2024-02-28T00:45:38;8.27;;;7.65;;
12768;SDS011;6448;48.916;8.990;2024-02-28T00:46:40;9.13;;;8.43;;
12768;SDS011;6448;48.916;8.990;2024-02-28T00:47:40;8.32;;;7.72;;
12768;SDS011;6448;48.916;8.990;2024-02-28T00:48:41;8.48;;;7.78;;
12768;SDS011;6448;48.916;8.990;2024-02-28T00:49:43;8.57;;;7.88;;
12768;SDS011;6448;48.916;8.990;2024-02-28T00:50:44;9.00;;;8.20;;
12768;SDS011;6448;48.916;8.990;2024-02-28T00:51:46;8.70;;;8.00;;
12768;SDS011;6448;48.916;8.990;2024-02-28T00:52:47;8.27;;;7.68;;
12768;SDS011;6448;48.916;8.990;2024-02-28T00:53:49;8.15;;;7.53;;
12768;SDS011;6448;48.916;8.990;2024-02-28T00:54:49;8.00;;;7.40;;
12768;SDS011;6448;48.916;8.990;2024-02-28T00:55:51;7.70;;;7.10;;
12768;SDS011;6448;48.916;8.990;2024-02-28T00:56:52;8.40;;;7.70;;
12768;SDS011;6448;48.916;8.990;2024-02-28T00:57:53;8.15;;;7.55;;
12768;SDS011;6448;48.916;8.990;2024-02-28T00:58:54;8.60;;;7.90;;
12768;SDS011;6448;48.916;8.990;2024-02-28T00:59:56;8.20;;;7.50;;
12768;SDS011;6448;48.916;8.990;2024-02-28T01:00:58;7.90;;;7.30;;
12768;SDS011;6448;48.916;8.990;2024-02-28T01:01:59;7.90;;;7.30;;
12768;SDS011;6448;48.916;8.990;2024-02-28T01:03:01;7.90;;;7.30;;
12768;SDS011;6448;48.916;8.990;2024-02-28T01:04:03;7.90;;;7.30;;
12768;SDS011;6448;48.916;8.990;2024-02-28T01:05:05;8.77;;;8.07;;
12768;SDS011;6448;48.916;8.990;2024-02-28T01:06:06;8.20;;;7.50;;
12768;SDS011;6448;48.916;8.990;2024-02-28T01:07:08;8.05;;;7.45;;
12768;SDS011;6448;48.916;8.990;2024-02-28T01:08:09;8.60;;;7.90;;
12768;SDS011;6448;48.916;8.990;2024-02-28T01:09:10;7.90;;;7.30;;
12768;SDS011;6448;48.916;8.990;2024-02-28T01:10:12;8.80;;;8.10;;
12768;SDS011;6448;48.916;8.990;2024-02-28T01:11:12;8.20;;;7.50;;
12768;SDS011;6448;48.916;8.990;2024-02-28T01:12:13;8.27;;;7.60;;
12768;SDS011;6448;48.916;8.990;2024-02-28T01:13:15;8.35;;;7.65;;
12768;SDS011;6448;48.916;8.990;2024-02-28T01:14:16;8.50;;;7.80;;
12768;SDS011;6448;48.916;8.990;2024-02-28T01:15:18;7.53;;;6.93;;
12768;SDS011;6448;48.916;8.990;2024-02-28T01:16:20;7.82;;;7.22;;
12768;SDS011;6448;48.916;8.990;2024-02-28T01:17:21;7.95;;;7.35;;
12768;SDS011;6448;48.916;8.990;2024-02-28T01:18:22;7.63;;;7.03;;
12768;SDS011;6448;48.916;8.990;2024-02-28T01:19:23;7.43;;;6.82;;
12768;SDS011;6448;48.916;8.990;2024-02-28T01:20:24;7.95;;;7.35;;
12768;SDS011;6448;48.916;8.990;2024-02-28T01:21:25;7.97;;;7.38;;
12768;SDS011;6448;48.916;8.990;2024-02-28T01:22:26;7.97;;;7.38;;
12768;SDS011;6448;48.916;8.990;2024-02-28T01:23:27;8.03;;;7.43;;
12768;SDS011;6448;48.916;8.990;2024-02-28T01:24:29;8.10;;;7.40;;
12768;SDS011;6448;48.916;8.990;2024-02-28T01:25:30;8.07;;;7.37;;
12768;SDS011;6448;48.916;8.990;2024-02-28T01:26:30;7.97;;;7.37;;
12768;SDS011;6448;48.916;8.990;2024-02-28T01:27:32;7.95;;;7.32;;
12768;SDS011;6448;48.916;8.990;2024-02-28T01:28:33;8.10;;;7.50;;
12768;SDS011;6448;48.916;8.990;2024-02-28T01:29:34;8.15;;;7.55;;
12768;SDS011;6448;48.916;8.990;2024-02-28T01:30:37;8.25;;;7.60;;
12768;SDS011;6448;48.916;8.990;2024-02-28T01:31:38;8.18;;;7.47;;
12768;SDS011;6448;48.916;8.990;2024-02-28T01:32:39;8.03;;;7.43;;
12768;SDS011;6448;48.916;8.990;2024-02-28T01:33:41;8.38;;;7.68;;
12768;SDS011;6448;48.916;8.990;2024-02-28T01:34:41;7.80;;;7.10;;
12768;SDS011;6448;48.916;8.990;2024-02-28T01:35:43;8.20;;;7.50;;
12768;SDS011;6448;48.916;8.990;2024-02-28T01:36:44;7.78;;;7.13;;
12768;SDS011;6448;48.916;8.990;2024-02-28T01:37:46;7.95;;;7.30;;
12768;SDS011;6448;48.916;8.990;2024-02-28T01:38:46;7.32;;;6.72;;
12768;SDS011;6448;48.916;8.990;2024-02-28T01:39:48;8.10;;;7.50;;
12768;SDS011;6448;48.916;8.990;2024-02-28T01:40:49;7.70;;;7.10;;
12768;SDS011;6448;48.916;8.990;2024-02-28T01:41:53;7.32;;;6.72;;
12768;SDS011;6448;48.916;8.990;2024-02-28T01:43:01;7.70;;;7.10;;
12768;SDS011;6448;48.916;8.990;2024-02-28T01:44:03;8.52;;;7.82;;
12768;SDS011;6448;48.916;8.990;2024-02-28T01:45:04;8.35;;;7.65;;
12768;SDS011;6448;48.916;8.990;2024-02-28T01:46:10;8.30;;;7.63;;
12768;SDS011;6448;48.916;8.990;2024-02-28T01:47:21;8.60;;;7.85;;
12768;SDS011;6448;48.916;8.990;2024-02-28T01:48:23;8.00;;;7.40;;
12768;SDS011;6448;48.916;8.990;2024-02-28T01:49:23;8.32;;;7.72;;
12768;SDS011;6448;48.916;8.990;2024-02-28T01:50:26;8.13;;;7.43;;
12768;SDS011;6448;48.916;8.990;2024-02-28T01:51:27;7.70;;;7.10;;
12768;SDS011;6448;48.916;8.990;2024-02-28T01:52:28;8.02;;;7.38;;
12768;SDS011;6448;48.916;8.990;2024-02-28T01:53:30;7.60;;;7.00;;
12768;SDS011;6448;48.916;8.990;2024-02-28T01:54:31;8.33;;;7.63;;
12768;SDS011;6448;48.916;8.990;2024-02-28T01:55:35;8.38;;;7.68;;
12768;SDS011;6448;48.916;8.990;2024-02-28T01:56:37;8.38;;;7.60;;
12768;SDS011;6448;48.916;8.990;2024-02-28T01:57:40;8.18;;;7.47;;
12768;SDS011;6448;48.916;8.990;2024-02-28T01:58:41;8.10;;;7.40;;
12768;SDS011;6448;48.916;8.990;2024-02-28T01:59:43;7.80;;;7.20;;
12768;SDS011;6448;48.916;8.990;2024-02-28T02:00:45;8.23;;;7.53;;
12768;SDS011;6448;48.916;8.990;2024-02-28T02:01:49;7.80;;;7.20;;
12768;SDS011;6448;48.916;8.990;2024-02-28T02:02:50;7.60;;;7.00;;
12768;SDS011;6448;48.916;8.990;2024-02-28T02:03:52;7.93;;;7.23;;
12768;SDS011;6448;48.916;8.990;2024-02-28T02:04:53;8.05;;;7.45;;
12768;SDS011;6448;48.916;8.990;2024-02-28T02:05:57;7.47;;;6.88;;
12768;SDS011;6448;48.916;8.990;2024-02-28T02:06:58;7.37;;;6.77;;
12768;SDS011;6448;48.916;8.990;2024-02-28T02:08:00;7.78;;;7.18;;
12768;SDS011;6448;48.916;8.990;2024-02-28T02:09:01;7.70;;;7.10;;
12768;SDS011;6448;48.916;8.990;2024-02-28T02:10:02;7.78;;;7.18;;
12768;SDS011;6448;48.916;8.990;2024-02-28T02:11:08;7.68;;;7.07;;
12768;SDS011;6448;48.916;8.990;2024-02-28T02:12:09;7.38;;;6.78;;
12768;SDS011;6448;48.916;8.990;2024-02-28T02:13:10;7.70;;;7.10;;
12768;SDS011;6448;48.916;8.990;2024-02-28T02:14:11;7.70;;;7.10;;
12768;SDS011;6448;48.916;8.990;2024-02-28T02:15:14;7.90;;;7.30;;
12768;SDS011;6448;48.916;8.990;2024-02-28T02:16:15;7.70;;;7.10;;
12768;SDS011;6448;48.916;8.990;2024-02-28T02:17:17;8.02;;;7.43;;
12768;SDS011;6448;48.916;8.990;2024-02-28T02:18:19;7.70;;;7.10;;
12768;SDS011;6448;48.916;8.990;2024-02-28T02:19:20;7.90;;;7.20;;
12768;SDS011;6448;48.916;8.990;2024-02-28T02:20:22;7.50;;;6.90;;
12768;SDS011;6448;48.916;8.990;2024-02-28T02:21:24;8.13;;;7.43;;
12768;SDS011;6448;48.916;8.990;2024-02-28T02:22:34;7.90;;;7.30;;
12768;SDS011;6448;48.916;8.990;2024-02-28T02:23:34;7.68;;;7.07;;
12768;SDS011;6448;48.916;8.990;2024-02-28T02:24:41;7.40;;;6.80;;
12768;SDS011;6448;48.916;8.990;2024-02-28T02:25:45;7.83;;;7.23;;
12768;SDS011;6448;48.916;8.990;2024-02-28T02:26:47;7.72;;;7.10;;
12768;SDS011;6448;48.916;8.990;2024-02-28T02:27:48;7.78;;;7.18;;
12768;SDS011;6448;48.916;8.990;2024-02-28T02:28:48;8.43;;;7.72;;
12768;SDS011;6448;48.916;8.990;2024-02-28T02:29:50;7.80;;;7.20;;
12768;SDS011;6448;48.916;8.990;2024-02-28T02:30:51;7.93;;;7.32;;
12768;SDS011;6448;48.916;8.990;2024-02-28T02:31:53;7.88;;;7.28;;
12768;SDS011;6448;48.916;8.990;2024-02-28T02:32:54;7.60;;;7.00;;
12768;SDS011;6448;48.916;8.990;2024-02-28T02:33:55;7.72;;;7.13;;
12768;SDS011;6448;48.916;8.990;2024-02-28T02:34:56;7.80;;;7.20;;
12768;SDS011;6448;48.916;8.990;2024-02-28T02:35:58;8.30;;;7.70;;
12768;SDS011;6448;48.916;8.990;2024-02-28T02:36:58;7.78;;;7.20;;
12768;SDS011;6448;48.916;8.990;2024-02-28T02:38:02;8.55;;;7.85;;
12768;SDS011;6448;48.916;8.990;2024-02-28T02:39:03;8.37;;;7.67;;
12768;SDS011;6448;48.916;8.990;2024-02-28T02:40:05;8.35;;;7.72;;
12768;SDS011;6448;48.916;8.990;2024-02-28T02:41:06;7.78;;;7.18;;
12768;SDS011;6448;48.916;8.990;2024-02-28T02:42:08;7.80;;;7.20;;
12768;SDS011;6448;48.916;8.990;2024-02-28T02:43:14;8.13;;;7.53;;
12768;SDS011;6448;48.916;8.990;2024-02-28T02:44:14;8.43;;;7.72;;
12768;SDS011;6448;48.916;8.990;2024-02-28T02:45:16;8.10;;;7.43;;
12768;SDS011;6448;48.916;8.990;2024-02-28T02:46:17;8.77;;;8.07;;
12768;SDS011;6448;48.916;8.990;2024-02-28T02:47:19;8.70;;;8.00;;
12768;SDS011;6448;48.916;8.990;2024-02-28T02:48:20;9.05;;;8.35;;
12768;SDS011;6448;48.916;8.990;2024-02-28T02:49:21;9.00;;;8.25;;
12768;SDS011;6448;48.916;8.990;2024-02-28T02:50:22;8.07;;;7.45;;
12768;SDS011;6448;48.916;8.990;2024-02-28T02:51:24;8.80;;;8.10;;
12768;SDS011;6448;48.916;8.990;2024-02-28T02:52:25;8.10;;;7.50;;
12768;SDS011;6448;48.916;8.990;2024-02-28T02:53:28;8.40;;;7.70;;
12768;SDS011;6448;48.916;8.990;2024-02-28T02:54:29;8.60;;;7.90;;
12768;SDS011;6448;48.916;8.990;2024-02-28T02:55:31;8.80;;;8.10;;
12768;SDS011;6448;48.916;8.990;2024-02-28T02:56:31;8.63;;;7.93;;
12768;SDS011;6448;48.916;8.990;2024-02-28T02:57:33;8.45;;;7.85;;
12768;SDS011;6448;48.916;8.990;2024-02-28T02:58:35;8.57;;;7.97;;
12768;SDS011;6448;48.916;8.990;2024-02-28T02:59:37;8.98;;;8.27;;
12768;SDS011;6448;48.916;8.990;2024-02-28T03:00:38;8.60;;;7.90;;
12768;SDS011;6448;48.916;8.990;2024-02-28T03:01:40;8.70;;;8.00;;
12768;SDS011;6448;48.916;8.990;2024-02-28T03:02:40;8.48;;;7.88;;
12768;SDS011;6448;48.916;8.990;2024-02-28T03:03:42;8.60;;;8.00;;
12768;SDS011;6448;48.916;8.990;2024-02-28T03:04:43;8.70;;;8.00;;
12768;SDS011;6448;48.916;8.990;2024-02-28T03:05:44;8.57;;;7.93;;
12768;SDS011;6448;48.916;8.990;2024-02-28T03:06:45;8.60;;;7.95;;
12768;SDS011;6448;48.916;8.990;2024-02-28T03:07:47;8.70;;;8.00;;
12768;SDS011;6448;48.916;8.990;2024-02-28T03:08:49;9.50;;;8.70;;
12768;SDS011;6448;48.916;8.990;2024-02-28T03:09:52;9.13;;;8.43;;
12768;SDS011;6448;48.916;8.990;2024-02-28T03:10:52;9.60;;;8.80;;
12768;SDS011;6448;48.916;8.990;2024-02-28T03:11:54;9.02;;;8.32;;
12768;SDS011;6448;48.916;8.990;2024-02-28T03:12:55;9.00;;;8.30;;
12768;SDS011;6448;48.916;8.990;2024-02-28T03:13:56;9.10;;;8.40;;
12768;SDS011;6448;48.916;8.990;2024-02-28T03:14:57;9.35;;;8.65;;
12768;SDS011;6448;48.916;8.990;2024-02-28T03:15:58;9.43;;;8.73;;
12768;SDS011;6448;48.916;8.990;2024-02-28T03:16:59;9.50;;;8.73;;
12768;SDS011;6448;48.916;8.990;2024-02-28T03:18:01;8.95;;;8.25;;
12768;SDS011;6448;48.916;8.990;2024-02-28T03:19:02;9.98;;;9.18;;
12768;SDS011;6448;48.916;8.990;2024-02-28T03:20:04;10.00;;;9.20;;
12768;SDS011;6448;48.916;8.990;2024-02-28T03:21:07;9.70;;;8.90;;
12768;SDS011;6448;48.916;8.990;2024-02-28T03:22:08;10.18;;;9.38;;
12768;SDS011;6448;48.916;8.990;2024-02-28T03:23:09;10.32;;;9.52;;
12768;SDS011;6448;48.916;8.990;2024-02-28T03:24:11;9.70;;;8.90;;
12768;SDS011;6448;48.916;8.990;2024-02-28T03:25:13;9.68;;;8.95;;
12768;SDS011;6448;48.916;8.990;2024-02-28T03:26:14;9.70;;;8.90;;
12768;SDS011;6448;48.916;8.990;2024-02-28T03:27:16;10.05;;;9.25;;
12768;SDS011;6448;48.916;8.990;2024-02-28T03:28:17;9.98;;;9.18;;
12768;SDS011;6448;48.916;8.990;2024-02-28T03:29:19;10.30;;;9.50;;
12768;SDS011;6448;48.916;8.990;2024-02-28T03:30:19;10.25;;;9.45;;
12768;SDS011;6448;48.916;8.990;2024-02-28T03:31:21;10.30;;;9.50;;
12768;SDS011;6448;48.916;8.990;2024-02-28T03:32:22;10.20;;;9.40;;
12768;SDS011;6448;48.916;8.990;2024-02-28T03:33:23;10.18;;;9.38;;
12768;SDS011;6448;48.916;8.990;2024-02-28T03:34:25;11.00;;;10.10;;
12768;SDS011;6448;48.916;8.990;2024-02-28T03:35:26;10.85;;;9.98;;
12768;SDS011;6448;48.916;8.990;2024-02-28T03:36:28;10.68;;;9.88;;
12768;SDS011;6448;48.916;8.990;2024-02-28T03:37:30;10.70;;;9.90;;
12768;SDS011;6448;48.916;8.990;2024-02-28T03:38:30;10.90;;;10.00;;
12768;SDS011;6448;48.916;8.990;2024-02-28T03:39:33;11.20;;;10.30;;
12768;SDS011;6448;48.916;8.990;2024-02-28T03:40:34;11.18;;;10.27;;
12768;SDS011;6448;48.916;8.990;2024-02-28T03:41:36;11.48;;;10.57;;
12768;SDS011;6448;48.916;8.990;2024-02-28T03:42:37;10.88;;;9.98;;
12768;SDS011;6448;48.916;8.990;2024-02-28T03:43:39;11.77;;;10.77;;
12768;SDS011;6448;48.916;8.990;2024-02-28T03:44:40;11.38;;;10.48;;
12768;SDS011;6448;48.916;8.990;2024-02-28T03:45:41;11.20;;;10.30;;
12768;SDS011;6448;48.916;8.990;2024-02-28T03:46:42;11.40;;;10.50;;
12768;SDS011;6448;48.916;8.990;2024-02-28T03:47:43;11.48;;;10.57;;
12768;SDS011;6448;48.916;8.990;2024-02-28T03:48:44;11.75;;;10.85;;
12768;SDS011;6448;48.916;8.990;2024-02-28T03:49:45;11.52;;;10.63;;
12768;SDS011;6448;48.916;8.990;2024-02-28T03:50:46;11.80;;;10.90;;
12768;SDS011;6448;48.916;8.990;2024-02-28T03:51:48;11.77;;;10.88;;
12768;SDS011;6448;48.916;8.990;2024-02-28T03:52:49;11.82;;;10.93;;
12768;SDS011;6448;48.916;8.990;2024-02-28T03:53:51;11.90;;;10.98;;
12768;SDS011;6448;48.916;8.990;2024-02-28T03:54:53;11.52;;;10.70;;
12768;SDS011;6448;48.916;8.990;2024-02-28T03:55:54;11.93;;;11.02;;
12768;SDS011;6448;48.916;8.990;2024-02-28T03:56:55;12.20;;;11.30;;
12768;SDS011;6448;48.916;8.990;2024-02-28T03:57:57;11.98;;;11.07;;
12768;SDS011;6448;48.916;8.990;2024-02-28T03:58:58;12.82;;;11.82;;
12768;SDS011;6448;48.916;8.990;2024-02-28T04:00:00;12.30;;;11.30;;
12768;SDS011;6448;48.916;8.990;2024-02-28T04:01:01;11.52;;;10.63;;
12768;SDS011;6448;48.916;8.990;2024-02-28T04:02:03;11.68;;;10.77;;
12768;SDS011;6448;48.916;8.990;2024-02-28T04:03:05;11.82;;;10.93;;
12768;SDS011;6448;48.916;8.990;2024-02-28T04:04:06;12.00;;;11.10;;
12768;SDS011;6448;48.916;8.990;2024-02-28T04:05:07;11.85;;;10.85;;
12768;SDS011;6448;48.916;8.990;2024-02-28T04:06:08;12.35;;;11.45;;
12768;SDS011;6448;48.916;8.990;2024-02-28T04:07:10;12.38;;;11.38;;
12768;SDS011;6448;48.916;8.990;2024-02-28T04:08:11;12.73;;;11.73;;
12768;SDS011;6448;48.916;8.990;2024-02-28T04:09:13;12.02;;;11.10;;
12768;SDS011;6448;48.916;8.990;2024-02-28T04:10:15;12.27;;;11.27;;
12768;SDS011;6448;48.916;8.990;2024-02-28T04:11:17;11.23;;;10.32;;
12768;SDS011;6448;48.916;8.990;2024-02-28T04:12:18;12.38;;;11.48;;
12768;SDS011;6448;48.916;8.990;2024-02-28T04:13:20;12.65;;;11.65;;
12768;SDS011;6448;48.916;8.990;2024-02-28T04:14:20;12.23;;;11.23;;
12768;SDS011;6448;48.916;8.990;2024-02-28T04:15:22;12.75;;;11.75;;
12768;SDS011;6448;48.916;8.990;2024-02-28T04:16:26;12.15;;;11.25;;
12768;SDS011;6448;48.916;8.990;2024-02-28T04:17:27;13.05;;;12.05;;
12768;SDS011;6448;48.916;8.990;2024-02-28T04:18:30;11.80;;;10.90;;
12768;SDS011;6448;48.916;8.990;2024-02-28T04:19:33;11.98;;;11.07;;
12768;SDS011;6448;48.916;8.990;2024-02-28T04:20:37;12.00;;;11.10;;
12768;SDS011;6448;48.916;8.990;2024-02-28T04:21:39;12.43;;;11.43;;
12768;SDS011;6448;48.916;8.990;2024-02-28T04:22:39;11.80;;;10.90;;
12768;SDS011;6448;48.916;8.990;2024-02-28T04:23:40;11.80;;;10.90;;
12768;SDS011;6448;48.916;8.990;2024-02-28T04:24:44;11.55;;;10.68;;
12768;SDS011;6448;48.916;8.990;2024-02-28T04:25:46;12.40;;;11.40;;
12768;SDS011;6448;48.916;8.990;2024-02-28T04:26:47;12.10;;;11.20;;
12768;SDS011;6448;48.916;8.990;2024-02-28T04:27:48;11.88;;;10.98;;
12768;SDS011;6448;48.916;8.990;2024-02-28T04:28:50;11.00;;;10.20;;
12768;SDS011;6448;48.916;8.990;2024-02-28T04:29:51;12.18;;;11.18;;
12768;SDS011;6448;48.916;8.990;2024-02-28T04:30:52;11.80;;;10.90;;
12768;SDS011;6448;48.916;8.990;2024-02-28T04:31:53;12.48;;;11.48;;
12768;SDS011;6448;48.916;8.990;2024-02-28T04:32:55;11.80;;;10.90;;
12768;SDS011;6448;48.916;8.990;2024-02-28T04:33:55;11.93;;;11.02;;
12768;SDS011;6448;48.916;8.990;2024-02-28T04:34:57;12.00;;;11.07;;
12768;SDS011;6448;48.916;8.990;2024-02-28T04:35:58;12.27;;;11.37;;
12768;SDS011;6448;48.916;8.990;2024-02-28T04:36:59;11.37;;;10.47;;
12768;SDS011;6448;48.916;8.990;2024-02-28T04:38:01;12.05;;;11.15;;
12768;SDS011;6448;48.916;8.990;2024-02-28T04:39:02;12.10;;;11.10;;
12768;SDS011;6448;48.916;8.990;2024-02-28T04:40:06;11.77;;;10.88;;
12768;SDS011;6448;48.916;8.990;2024-02-28T04:41:09;11.80;;;10.90;;
12768;SDS011;6448;48.916;8.990;2024-02-28T04:42:12;12.40;;;11.50;;
12768;SDS011;6448;48.916;8.990;2024-02-28T04:43:13;12.00;;;11.10;;
12768;SDS011;6448;48.916;8.990;2024-02-28T04:44:14;12.10;;;11.10;;
12768;SDS011;6448;48.916;8.990;2024-02-28T04:45:15;11.90;;;11.00;;
12768;SDS011;6448;48.916;8.990;2024-02-28T04:46:17;11.77;;;10.88;;
12768;SDS011;6448;48.916;8.990;2024-02-28T04:47:18;12.25;;;11.25;;
12768;SDS011;6448;48.916;8.990;2024-02-28T04:48:19;12.23;;;11.32;;
12768;SDS011;6448;48.916;8.990;2024-02-28T04:49:20;13.00;;;11.80;;
12768;SDS011;6448;48.916;8.990;2024-02-28T04:50:23;12.93;;;11.93;;
12768;SDS011;6448;48.916;8.990;2024-02-28T04:51:25;13.30;;;12.20;;
12768;SDS011;6448;48.916;8.990;2024-02-28T04:52:25;12.80;;;11.80;;
12768;SDS011;6448;48.916;8.990;2024-02-28T04:53:27;12.77;;;11.77;;
12768;SDS011;6448;48.916;8.990;2024-02-28T04:54:28;12.32;;;11.32;;
12768;SDS011;6448;48.916;8.990;2024-02-28T04:55:30;12.35;;;11.35;;
12768;SDS011;6448;48.916;8.990;2024-02-28T04:56:32;12.83;;;11.83;;
12768;SDS011;6448;48.916;8.990;2024-02-28T04:57:34;13.02;;;11.93;;
12768;SDS011;6448;48.916;8.990;2024-02-28T04:58:35;12.68;;;11.68;;
12768;SDS011;6448;48.916;8.990;2024-02-28T04:59:36;13.18;;;12.10;;
12768;SDS011;6448;48.916;8.990;2024-02-28T05:00:38;13.50;;;12.48;;
12768;SDS011;6448;48.916;8.990;2024-02-28T05:01:38;12.97;;;11.97;;
12768;SDS011;6448;48.916;8.990;2024-02-28T05:02:42;13.52;;;12.43;;
12768;SDS011;6448;48.916;8.990;2024-02-28T05:03:43;13.80;;;12.70;;
12768;SDS011;6448;48.916;8.990;2024-02-28T05:04:44;13.57;;;12.52;;
12768;SDS011;6448;48.916;8.990;2024-02-28T05:05:45;13.50;;;12.40;;
12768;SDS011;6448;48.916;8.990;2024-02-28T05:06:46;12.77;;;11.77;;
12768;SDS011;6448;48.916;8.990;2024-02-28T05:07:48;12.93;;;11.93;;
12768;SDS011;6448;48.916;8.990;2024-02-28T05:08:48;13.45;;;12.35;;
12768;SDS011;6448;48.916;8.990;2024-02-28T05:09:50;13.85;;;12.75;;
12768;SDS011;6448;48.916;8.990;2024-02-28T05:10:51;13.00;;;12.00;;
12768;SDS011;6448;48.916;8.990;2024-02-28T05:11:54;13.27;;;12.23;;
12768;SDS011;6448;48.916;8.990;2024-02-28T05:12:55;13.40;;;12.30;;
12768;SDS011;6448;48.916;8.990;2024-02-28T05:13:57;13.40;;;12.30;;
12768;SDS011;6448;48.916;8.990;2024-02-28T05:14:58;13.43;;;12.33;;
12768;SDS011;6448;48.916;8.990;2024-02-28T05:15:59;12.82;;;11.82;;
12768;SDS011;6448;48.916;8.990;2024-02-28T05:17:00;13.10;;;12.10;;
12768;SDS011;6448;48.916;8.990;2024-02-28T05:18:01;13.02;;;11.98;;
12768;SDS011;6448;48.916;8.990;2024-02-28T05:19:03;13.02;;;12.02;;
12768;SDS011;6448;48.916;8.990;2024-02-28T05:20:04;13.07;;;12.00;;
12768;SDS011;6448;48.916;8.990;2024-02-28T05:21:07;13.80;;;12.70;;
12768;SDS011;6448;48.916;8.990;2024-02-28T05:22:08;13.05;;;12.05;;
12768;SDS011;6448;48.916;8.990;2024-02-28T05:23:11;13.45;;;12.45;;
12768;SDS011;6448;48.916;8.990;2024-02-28T05:24:13;13.48;;;12.48;;
12768;SDS011;6448;48.916;8.990;2024-02-28T05:25:14;13.43;;;12.33;;
12768;SDS011;6448;48.916;8.990;2024-02-28T05:26:15;13.53;;;12.43;;
12768;SDS011;6448;48.916;8.990;2024-02-28T05:27:17;13.27;;;12.23;;
12768;SDS011;6448;48.916;8.990;2024-02-28T05:28:19;13.88;;;12.77;;
12768;SDS011;6448;48.916;8.990;2024-02-28T05:29:20;13.75;;;12.65;;
12768;SDS011;6448;48.916;8.990;2024-02-28T05:30:22;13.40;;;12.30;;
12768;SDS011;6448;48.916;8.990;2024-02-28T05:31:23;13.98;;;12.88;;
12768;SDS011;6448;48.916;8.990;2024-02-28T05:32:26;13.43;;;12.43;;
12768;SDS011;6448;48.916;8.990;2024-02-28T05:33:26;13.75;;;12.70;;
12768;SDS011;6448;48.916;8.990;2024-02-28T05:34:28;13.07;;;12.07;;
12768;SDS011;6448;48.916;8.990;2024-02-28T05:35:29;13.35;;;12.25;;
12768;SDS011;6448;48.916;8.990;2024-02-28T05:36:31;12.93;;;11.93;;
12768;SDS011;6448;48.916;8.990;2024-02-28T05:37:32;13.77;;;12.68;;
12768;SDS011;6448;48.916;8.990;2024-02-28T05:38:34;14.00;;;12.90;;
12768;SDS011;6448;48.916;8.990;2024-02-28T05:39:35;14.10;;;13.00;;
12768;SDS011;6448;48.916;8.990;2024-02-28T05:40:36;14.10;;;13.00;;
12768;SDS011;6448;48.916;8.990;2024-02-28T05:41:37;13.38;;;12.38;;
12768;SDS011;6448;48.916;8.990;2024-02-28T05:42:40;14.10;;;12.90;;
12768;SDS011;6448;48.916;8.990;2024-02-28T05:43:43;14.68;;;13.50;;
12768;SDS011;6448;48.916;8.990;2024-02-28T05:44:44;14.50;;;13.40;;
12768;SDS011;6448;48.916;8.990;2024-02-28T05:45:45;15.73;;;14.43;;
12768;SDS011;6448;48.916;8.990;2024-02-28T05:46:46;15.10;;;13.90;;
12768;SDS011;6448;48.916;8.990;2024-02-28T05:47:48;15.55;;;14.25;;
12768;SDS011;6448;48.916;8.990;2024-02-28T05:48:49;17.25;;;15.75;;
12768;SDS011;6448;48.916;8.990;2024-02-28T05:49:51;16.10;;;14.80;;
12768;SDS011;6448;48.916;8.990;2024-02-28T05:50:52;15.47;;;14.27;;
12768;SDS011;6448;48.916;8.990;2024-02-28T05:51:53;15.00;;;13.90;;
12768;SDS011;6448;48.916;8.990;2024-02-28T05:52:55;15.10;;;13.90;;
12768;SDS011;6448;48.916;8.990;2024-02-28T05:53:55;14.47;;;13.37;;
12768;SDS011;6448;48.916;8.990;2024-02-28T05:54:57;15.00;;;13.70;;
12768;SDS011;6448;48.916;8.990;2024-02-28T05:55:58;14.37;;;13.27;;
12768;SDS011;6448;48.916;8.990;2024-02-28T05:56:59;14.20;;;13.10;;
12768;SDS011;6448;48.916;8.990;2024-02-28T05:58:02;13.45;;;12.45;;
12768;SDS011;6448;48.916;8.990;2024-02-28T05:59:03;13.43;;;12.43;;
12768;SDS011;6448;48.916;8.990;2024-02-28T06:00:05;13.75;;;12.65;;
12768;SDS011;6448;48.916;8.990;2024-02-28T06:01:12;13.30;;;12.20;;
12768;SDS011;6448;48.916;8.990;2024-02-28T06:02:16;13.38;;;12.30;;
12768;SDS011;6448;48.916;8.990;2024-02-28T06:03:16;12.93;;;11.93;;
12768;SDS011;6448;48.916;8.990;2024-02-28T06:04:18;13.95;;;12.85;;
12768;SDS011;6448;48.916;8.990;2024-02-28T06:05:19;13.95;;;12.90;;
12768;SDS011;6448;48.916;8.990;2024-02-28T06:06:21;13.97;;;12.87;;
12768;SDS011;6448;48.916;8.990;2024-02-28T06:07:21;14.03;;;12.93;;
12768;SDS011;6448;48.916;8.990;2024-02-28T06:08:24;13.50;;;12.45;;
12768;SDS011;6448;48.916;8.990;2024-02-28T06:09:25;14.10;;;13.00;;
12768;SDS011;6448;48.916;8.990;2024-02-28T06:10:27;13.20;;;12.20;;
12768;SDS011;6448;48.916;8.990;2024-02-28T06:11:28;13.93;;;12.77;;
12768;SDS011;6448;48.916;8.990;2024-02-28T06:12:30;13.85;;;12.85;;